Time;durP1;ratioP1;P1;durP2;ratioP2;P2;SDS_P1;SDS_P2;PMS_P1;PMS_P2;Temp;Humidity;BMP_temperature;BMP_pressure;BME280_temperature;BME280_humidity;BME280_pressure;Samples;Min_cycle;Max_cycle;Signal;HPM_P1;HPM_P2
2023/06/01 00:00:10;;;;;;;;;4.00;3.00;;;;;9.63;90.28;98617.53;4823574;29;104067;-72
2023/06/01 00:02:37;;;;;;;;;2.25;2.25;;;;;9.78;89.96;98649.81;4823342;28;101930;-72
2023/06/01 00:05:13;;;;;;;;;2.75;2.75;;;;;9.75;89.47;98645.66;4821912;28;106852;-72
2023/06/01 00:08:05;;;;;;;;;4.50;4.00;;;;;9.74;89.87;98641.28;4823976;28;102487;-71
2023/06/01 00:10:52;;;;;;;;;1.00;1.00;;;;;9.72;88.32;98650.63;4823928;28;103040;-72
2023/06/01 00:13:38;;;;;;;;;4.00;4.00;;;;;9.69;89.17;98646.44;4821736;29;102170;-72
2023/06/01 00:16:30;;;;;;;;;3.50;3.00;;;;;9.66;89.25;98646.81;4818692;28;102629;-72
2023/06/01 00:19:06;;;;;;;;;3.25;3.00;;;;;9.54;89.26;98636.75;4821074;28;103116;-71
2023/06/01 00:21:35;;;;;;;;;2.25;2.25;;;;;9.54;90.92;98651.09;4817409;28;104038;-71
2023/06/01 00:24:02;;;;;;;;;3.50;3.00;;;;;9.43;92.52;98656.16;4821100;28;102768;-72
2023/06/01 00:26:31;;;;;;;;;1.25;1.00;;;;;9.40;92.77;98649.28;4820927;28;102102;-71
2023/06/01 00:29:01;;;;;;;;;2.25;2.25;;;;;9.41;91.51;98645.56;4825390;28;102262;-71
2023/06/01 00:31:28;;;;;;;;;3.00;2.50;;;;;9.40;90.20;98651.97;4820483;28;103960;-71
2023/06/01 00:33:55;;;;;;;;;2.25;2.00;;;;;9.38;91.09;98646.75;4818369;28;101914;-71
2023/06/01 00:36:22;;;;;;;;;2.00;0.00;;;;;9.36;90.91;98648.00;4818574;28;103364;-70
2023/06/01 00:38:49;;;;;;;;;2.00;2.00;;;;;9.32;89.32;98647.53;4825814;28;102135;-71
2023/06/01 00:41:16;;;;;;;;;1.00;1.00;;;;;9.31;89.38;98647.72;4818724;28;108400;-70
2023/06/01 00:43:43;;;;;;;;;0.00;0.00;;;;;9.22;92.01;98647.03;4823351;28;102309;-71
2023/06/01 00:46:11;;;;;;;;;4.25;3.50;;;;;9.16;91.50;98646.94;4817018;28;102056;-71
2023/06/01 00:48:38;;;;;;;;;2.00;2.00;;;;;9.15;90.73;98646.09;4820957;28;103526;-71
2023/06/01 00:51:05;;;;;;;;;2.00;2.00;;;;;9.12;90.76;98640.25;4820493;28;104019;-71
2023/06/01 00:53:32;;;;;;;;;2.00;2.00;;;;;8.71;92.92;98597.69;4821378;29;102660;-71
2023/06/01 00:55:59;;;;;;;;;2.50;1.75;;;;;8.98;92.79;98646.53;4820049;28;103124;-71
2023/06/01 00:58:26;;;;;;;;;2.00;1.75;;;;;8.98;92.84;98647.38;4819696;28;101979;-71
2023/06/01 01:00:54;;;;;;;;;2.00;2.00;;;;;8.93;92.86;98644.41;4819019;28;104078;-71
2023/06/01 01:03:21;;;;;;;;;2.25;2.25;;;;;8.89;93.14;98643.94;4820626;28;102056;-71
2023/06/01 01:06:11;;;;;;;;;2.25;2.25;;;;;8.77;95.25;98640.06;4820457;28;102119;-71
2023/06/01 01:09:25;;;;;;;;;6.00;4.75;;;;;8.69;95.86;98644.75;4809241;28;102102;-71
2023/06/01 01:12:25;;;;;;;;;3.75;3.75;;;;;8.64;96.01;98639.91;4820457;28;107270;-71
2023/06/01 01:15:17;;;;;;;;;4.75;4.25;;;;;8.66;94.96;98637.84;4818913;28;104368;-71
2023/06/01 01:18:01;;;;;;;;;4.00;3.00;;;;;8.63;93.96;98630.16;4822852;28;102032;-71
2023/06/01 01:20:41;;;;;;;;;4.50;3.50;;;;;8.69;93.21;98637.47;4821725;28;102008;-70
2023/06/01 01:23:45;;;;;;;;;2.75;2.75;;;;;8.70;92.87;98633.75;4820923;28;103989;-71
2023/06/01 01:26:40;;;;;;;;;2.00;2.00;;;;;8.69;92.17;98634.75;4762102;29;102276;-71
2023/06/01 01:29:10;;;;;;;;;2.75;2.75;;;;;8.67;91.32;98636.00;4822291;28;102054;-71
2023/06/01 01:31:39;;;;;;;;;2.25;2.25;;;;;8.66;91.89;98631.63;4824814;28;102279;-71
2023/06/01 01:34:08;;;;;;;;;3.00;2.00;;;;;8.62;92.72;98633.84;4786809;29;104075;-71
2023/06/01 01:36:36;;;;;;;;;1.75;1.75;;;;;8.55;91.57;98630.25;4787008;28;102153;-71
2023/06/01 01:39:03;;;;;;;;;1.25;1.00;;;;;8.46;91.70;98625.97;4783739;28;102883;-71
2023/06/01 01:41:30;;;;;;;;;1.00;1.00;;;;;8.36;92.65;98623.56;4788717;29;101958;-71
2023/06/01 01:43:59;;;;;;;;;3.25;2.00;;;;;8.32;92.76;98618.75;4783470;28;104015;-70
2023/06/01 01:46:29;;;;;;;;;2.25;1.75;;;;;8.30;93.45;98618.06;4785904;29;102044;-70
2023/06/01 01:49:32;;;;;;;;;0.00;0.00;;;;;8.33;93.06;98617.72;4785591;29;102373;-73
2023/06/01 01:52:06;;;;;;;;;0.75;0.75;;;;;8.31;94.90;98617.91;4766554;29;101985;-71
2023/06/01 01:54:41;;;;;;;;;2.00;2.00;;;;;8.30;95.13;98613.53;4786487;29;104130;-70
2023/06/01 01:57:09;;;;;;;;;2.00;2.00;;;;;8.31;93.77;98617.06;4784638;29;102231;-71
2023/06/01 01:59:37;;;;;;;;;2.00;1.00;;;;;8.36;94.07;98615.50;4786887;29;107405;-71
2023/06/01 02:02:05;;;;;;;;;4.00;4.00;;;;;8.38;94.77;98617.97;4788414;29;102303;-71
2023/06/01 02:04:32;;;;;;;;;4.00;3.75;;;;;8.34;92.92;98616.69;4786897;28;104236;-71
2023/06/01 02:06:59;;;;;;;;;2.50;2.50;;;;;8.31;92.68;98612.50;4787074;29;101915;-70
2023/06/01 02:09:26;;;;;;;;;4.00;4.00;;;;;8.26;93.25;98608.66;4783582;29;102266;-71
2023/06/01 02:11:53;;;;;;;;;4.25;3.25;;;;;8.25;92.39;98602.44;4787805;29;102073;-70
2023/06/01 02:14:20;;;;;;;;;3.00;2.50;;;;;8.26;92.50;98614.91;4786608;29;104007;-71
2023/06/01 02:16:47;;;;;;;;;3.00;2.00;;;;;8.26;92.35;98612.19;4790009;29;102316;-71
2023/06/01 02:19:15;;;;;;;;;2.00;2.00;;;;;8.18;92.94;98611.47;4786066;28;102222;-71
2023/06/01 02:21:43;;;;;;;;;2.75;2.00;;;;;8.13;94.68;98605.78;4789212;29;102015;-71
2023/06/01 02:24:10;;;;;;;;;3.25;3.25;;;;;8.01;97.54;98606.22;4786718;29;104104;-71
2023/06/01 02:26:37;;;;;;;;;4.25;3.00;;;;;8.05;96.48;98602.19;4783402;29;102153;-71
2023/06/01 02:29:07;;;;;;;;;2.00;2.00;;;;;8.07;95.57;98594.72;4785360;29;101898;-71
2023/06/01 02:31:35;;;;;;;;;3.50;2.75;;;;;7.97;96.24;98590.66;4788008;28;102339;-71
2023/06/01 02:34:02;;;;;;;;;5.00;4.00;;;;;7.89;97.81;98596.94;4822098;28;104294;-70
2023/06/01 02:36:31;;;;;;;;;7.00;7.00;;;;;7.82;99.39;98609.47;4823575;28;102258;-71
2023/06/01 02:38:59;;;;;;;;;8.75;8.75;;;;;7.75;100.00;98596.91;4822514;28;101978;-71
2023/06/01 02:41:27;;;;;;;;;16.00;14.25;;;;;7.55;99.70;98602.00;4822332;29;101974;-71
2023/06/01 02:43:54;;;;;;;;;18.75;15.50;;;;;7.44;100.00;98605.09;4819733;28;104056;-71
2023/06/01 02:46:21;;;;;;;;;11.50;10.75;;;;;7.46;100.00;98600.41;4821859;28;102008;-70
2023/06/01 02:48:48;;;;;;;;;10.25;10.00;;;;;7.57;100.00;98597.25;4825134;28;102358;-70
2023/06/01 02:51:15;;;;;;;;;11.00;9.25;;;;;7.66;99.16;98598.03;4823727;28;102146;-71
2023/06/01 02:53:42;;;;;;;;;5.00;5.00;;;;;7.66;96.58;98587.25;4822934;29;104002;-71
2023/06/01 02:56:10;;;;;;;;;7.50;6.75;;;;;7.64;95.09;98592.84;4821496;28;102020;-71
2023/06/01 02:58:37;;;;;;;;;5.75;5.00;;;;;7.63;94.79;98591.16;4819570;29;102167;-71
2023/06/01 03:01:04;;;;;;;;;7.75;7.50;;;;;7.53;96.57;98593.25;4822193;28;102083;-71
2023/06/01 03:03:32;;;;;;;;;7.00;4.00;;;;;7.46;97.70;98595.88;4821385;28;104053;-71
2023/06/01 03:05:59;;;;;;;;;3.00;2.75;;;;;7.45;97.59;98599.56;4824388;28;102432;-71
2023/06/01 03:08:26;;;;;;;;;6.00;5.00;;;;;7.49;97.12;98606.25;4823358;29;102341;-71
2023/06/01 03:10:53;;;;;;;;;5.00;4.00;;;;;7.52;96.33;98605.06;4821224;29;102271;-71
2023/06/01 03:13:20;;;;;;;;;10.75;9.50;;;;;7.36;99.46;98600.66;4824607;28;104112;-70
2023/06/01 03:15:47;;;;;;;;;9.00;8.00;;;;;7.41;98.96;98592.88;4821137;28;102261;-70
2023/06/01 03:18:15;;;;;;;;;10.00;9.00;;;;;7.34;100.00;98593.78;4819764;28;102771;-71
2023/06/01 03:20:42;;;;;;;;;7.25;7.25;;;;;7.41;100.00;98603.63;4821175;28;102501;-71
2023/06/01 03:23:09;;;;;;;;;7.00;4.75;;;;;7.48;100.00;98592.97;4821024;29;104337;-71
2023/06/01 03:25:36;;;;;;;;;7.50;7.00;;;;;7.49;100.00;98594.66;4822493;28;101802;-71
2023/06/01 03:28:03;;;;;;;;;6.00;5.00;;;;;7.51;99.56;98588.09;4822379;29;102166;-71
2023/06/01 03:30:31;;;;;;;;;10.75;8.50;;;;;7.63;98.46;98596.53;4821321;29;102242;-71
2023/06/01 03:32:58;;;;;;;;;7.00;7.00;;;;;7.69;97.37;98590.44;4818976;29;104219;-70
2023/06/01 03:35:25;;;;;;;;;8.00;7.00;;;;;7.75;96.75;98584.31;4819632;29;102424;-70
2023/06/01 03:37:52;;;;;;;;;8.25;8.25;;;;;7.80;98.11;98587.28;4820914;29;102284;-71
2023/06/01 03:40:19;;;;;;;;;9.00;7.00;;;;;7.78;100.00;98583.13;4820226;29;103058;-71
2023/06/01 03:42:49;;;;;;;;;5.50;5.00;;;;;7.82;100.00;98585.25;4815586;28;104043;-71
2023/06/01 03:45:16;;;;;;;;;5.00;4.00;;;;;7.92;100.00;98593.91;4819089;28;102311;-70
2023/06/01 03:47:44;;;;;;;;;8.00;6.75;;;;;7.99;100.00;98592.13;4818307;28;101873;-71
2023/06/01 03:50:11;;;;;;;;;7.50;7.50;;;;;8.00;100.00;98577.66;4819801;28;102428;-71
2023/06/01 03:52:39;;;;;;;;;8.00;6.25;;;;;8.07;100.00;98588.50;4821669;28;104383;-71
2023/06/01 03:55:10;;;;;;;;;8.75;8.00;;;;;8.16;100.00;98590.09;4823001;29;102180;-71
2023/06/01 03:57:37;;;;;;;;;5.25;5.00;;;;;8.16;100.00;98579.31;4821100;28;104873;-71
2023/06/01 04:00:18;;;;;;;;;7.50;6.50;;;;;8.29;100.00;98584.91;4822425;29;102023;-72
2023/06/01 04:02:52;;;;;;;;;8.50;8.00;;;;;8.28;100.00;98556.28;4819025;28;104234;-71
2023/06/01 04:05:21;;;;;;;;;5.50;4.25;;;;;8.56;100.00;98575.31;4820288;29;101805;-71
2023/06/01 04:07:51;;;;;;;;;3.00;2.75;;;;;8.66;99.63;98586.63;4818676;29;102309;-71
2023/06/01 04:10:19;;;;;;;;;4.00;4.00;;;;;8.75;100.00;98581.97;4818137;28;103783;-71
2023/06/01 04:12:48;;;;;;;;;4.25;4.00;;;;;8.52;100.00;98520.13;4818627;29;104544;-71
2023/06/01 04:15:17;;;;;;;;;5.00;4.00;;;;;9.01;100.00;98584.09;4818204;29;102099;-71
2023/06/01 04:17:45;;;;;;;;;3.50;3.00;;;;;9.12;100.00;98575.53;4818534;29;102026;-71
2023/06/01 04:20:15;;;;;;;;;3.00;3.00;;;;;9.32;100.00;98587.34;4820726;28;106415;-71
2023/06/01 04:22:45;;;;;;;;;3.25;3.00;;;;;9.51;99.74;98580.44;4818581;28;104038;-71
2023/06/01 04:25:20;;;;;;;;;2.25;2.25;;;;;9.70;99.39;98577.91;4819549;28;102006;-72
2023/06/01 04:27:51;;;;;;;;;3.00;3.00;;;;;9.94;100.00;98583.91;4822289;28;102260;-71
2023/06/01 04:30:18;;;;;;;;;3.75;3.75;;;;;10.21;100.00;98578.50;4823145;29;102495;-71
2023/06/01 04:32:47;;;;;;;;;5.75;5.00;;;;;10.47;100.00;98575.09;4822654;28;105076;-71
2023/06/01 04:35:16;;;;;;;;;6.00;5.00;;;;;10.81;100.00;98578.78;4823494;28;102011;-72
2023/06/01 04:37:44;;;;;;;;;8.50;7.00;;;;;11.23;100.00;98564.91;4821073;28;102848;-71
2023/06/01 04:40:12;;;;;;;;;13.25;12.00;;;;;12.14;96.78;98562.41;4821774;28;102047;-72
2023/06/01 04:42:48;;;;;;;;;17.00;15.75;;;;;12.93;92.47;98557.50;4820717;28;104080;-71
2023/06/01 04:45:16;;;;;;;;;26.00;23.25;;;;;13.70;89.69;98562.66;4820937;28;102019;-71
2023/06/01 04:47:44;;;;;;;;;22.50;19.25;;;;;14.18;85.17;98551.94;4824840;28;101975;-71
2023/06/01 04:50:15;;;;;;;;;23.00;21.50;;;;;14.33;84.42;98548.88;4819423;28;102259;-71
2023/06/01 04:52:42;;;;;;;;;31.50;26.00;;;;;14.73;82.73;98551.97;4824210;28;104135;-72
2023/06/01 04:55:13;;;;;;;;;30.50;28.00;;;;;15.35;81.07;98552.59;4822737;28;102004;-70
2023/06/01 04:57:42;;;;;;;;;27.25;25.50;;;;;15.89;77.78;98548.81;4808219;29;102538;-71
2023/06/01 05:00:12;;;;;;;;;28.00;22.25;;;;;16.16;75.81;98540.97;4824865;28;102503;-71
2023/06/01 05:02:43;;;;;;;;;35.00;31.75;;;;;16.51;76.60;98541.75;4822762;29;104146;-71
2023/06/01 13:47:25;;;;;;;;;3.67;3.67;;;;;26.76;28.52;98187.41;3965722;28;103862;-70
2023/06/01 13:49:52;;;;;;;;;2.33;2.33;;;;;26.90;28.71;98182.66;4820743;29;105344;-71
2023/06/01 13:52:19;;;;;;;;;1.33;1.33;;;;;26.98;28.81;98179.09;4820373;28;102383;-70
2023/06/01 13:54:46;;;;;;;;;2.00;1.33;;;;;27.09;29.45;98180.47;4822332;28;101938;-70
2023/06/01 13:57:13;;;;;;;;;1.33;1.33;;;;;27.08;29.43;98170.50;4824787;29;102012;-70
2023/06/01 13:59:40;;;;;;;;;3.00;1.00;;;;;27.19;29.09;98163.56;4820995;29;104267;-71
2023/06/01 14:02:08;;;;;;;;;0.33;0.33;;;;;27.28;29.80;98153.31;4823647;28;101744;-71
2023/06/01 14:04:35;;;;;;;;;1.33;1.33;;;;;27.30;29.60;98164.88;4818978;28;101944;-71
2023/06/01 14:07:02;;;;;;;;;1.33;1.33;;;;;27.32;29.49;98157.06;4824281;29;102097;-70
2023/06/01 14:09:29;;;;;;;;;2.00;2.00;;;;;27.41;29.51;98155.16;4818618;28;103654;-70
2023/06/01 14:11:57;;;;;;;;;2.00;1.33;;;;;27.27;29.76;98148.06;4823773;29;101974;-70
2023/06/01 14:14:24;;;;;;;;;2.00;1.33;;;;;27.29;29.22;98157.69;4821929;29;101984;-70
2023/06/01 14:16:51;;;;;;;;;2.00;1.33;;;;;27.23;29.01;98153.44;4823439;28;102496;-69
2023/06/01 14:19:26;;;;;;;;;1.00;1.00;;;;;27.18;30.31;98139.69;4990239;28;102285;-69
2023/06/01 14:21:53;;;;;;;;;1.00;1.00;;;;;27.38;31.25;98146.63;4993032;28;101939;-70
2023/06/01 14:24:20;;;;;;;;;5.33;5.33;;;;;26.42;29.65;98138.91;4990990;28;104148;-73
2023/06/01 14:26:48;;;;;;;;;7.33;6.00;;;;;26.25;30.32;98136.00;4989806;28;101896;-72
2023/06/01 14:29:15;;;;;;;;;7.00;6.33;;;;;25.87;29.79;98142.97;4993773;28;102532;-72
2023/06/01 14:31:42;;;;;;;;;7.67;5.00;;;;;25.89;29.48;98144.31;4996289;28;102348;-71
2023/06/01 14:34:09;;;;;;;;;5.33;4.33;;;;;25.98;32.12;98127.75;4981595;27;104036;-71
2023/06/01 14:36:36;;;;;;;;;4.00;4.00;;;;;26.40;30.93;98141.16;4992581;28;102375;-70
2023/06/01 14:39:13;;;;;;;;;3.67;2.67;;;;;26.69;29.91;98137.13;4988415;28;103106;-68
2023/06/01 14:41:40;;;;;;;;;4.00;4.00;;;;;26.67;29.73;98139.38;4990460;28;102328;-69
2023/06/01 14:44:10;;;;;;;;;3.00;3.00;;;;;26.96;30.32;98134.22;4991914;28;104394;-70
2023/06/01 14:46:37;;;;;;;;;6.00;5.33;;;;;26.55;29.25;98126.09;4990150;28;102003;-70
2023/06/01 14:49:05;;;;;;;;;6.00;5.67;;;;;26.12;30.15;98121.03;4991132;28;102402;-70
2023/06/01 14:51:32;;;;;;;;;6.00;5.00;;;;;26.21;29.93;98129.44;5001227;28;102060;-69
2023/06/01 14:54:00;;;;;;;;;4.00;3.33;;;;;25.71;30.65;98129.44;4991481;27;108662;-69
2023/06/01 14:56:27;;;;;;;;;5.00;5.00;;;;;25.55;31.64;98125.38;4991993;28;102126;-69
2023/06/01 14:58:54;;;;;;;;;3.00;3.00;;;;;25.59;30.73;98125.56;4988981;28;101980;-70
2023/06/01 15:01:21;;;;;;;;;4.33;4.33;;;;;25.54;31.61;98117.38;4994187;28;102485;-69
2023/06/01 15:03:48;;;;;;;;;4.00;4.00;;;;;25.84;29.86;98121.44;4985728;28;104176;-70
2023/06/01 15:06:15;;;;;;;;;2.00;2.00;;;;;26.05;30.73;98120.66;4993782;28;102170;-69
2023/06/01 15:08:42;;;;;;;;;3.33;3.00;;;;;25.91;30.51;98119.88;4989183;28;102325;-69
2023/06/01 15:11:09;;;;;;;;;3.00;3.00;;;;;26.08;29.40;98116.41;4999550;27;101999;-69
2023/06/01 15:13:39;;;;;;;;;3.00;3.00;;;;;26.14;30.22;98115.16;4970163;28;104021;-69
2023/06/01 15:16:07;;;;;;;;;4.00;4.00;;;;;25.95;28.72;98114.50;4971100;28;101991;-69
2023/06/01 15:18:34;;;;;;;;;3.00;3.00;;;;;26.02;32.15;98101.88;4971923;28;102264;-70
2023/06/01 15:21:01;;;;;;;;;8.00;7.00;;;;;25.59;30.16;98108.97;4974531;28;101966;-69
2023/06/01 15:23:28;;;;;;;;;3.00;3.00;;;;;25.83;28.14;98103.16;4970258;28;108942;-70
2023/06/01 15:25:55;;;;;;;;;3.00;2.00;;;;;26.09;27.45;98104.19;4971940;28;102131;-69
2023/06/01 15:28:22;;;;;;;;;1.00;1.00;;;;;26.27;26.45;98100.47;4971234;28;101935;-69
2023/06/01 15:30:52;;;;;;;;;3.00;3.00;;;;;26.46;27.62;98101.09;4958455;28;102755;-70
2023/06/01 15:33:19;;;;;;;;;1.33;1.00;;;;;26.64;28.74;98093.69;4958831;28;104013;-70
2023/06/01 15:35:46;;;;;;;;;3.00;3.00;;;;;26.39;29.67;98080.47;4956142;28;102310;-70
2023/06/01 15:38:13;;;;;;;;;6.00;6.00;;;;;26.14;30.80;98087.47;4954751;28;102027;-70
2023/06/01 15:40:40;;;;;;;;;6.00;5.00;;;;;25.96;31.40;98088.44;4955259;28;101888;-70
2023/06/01 15:43:07;;;;;;;;;6.00;6.00;;;;;25.77;31.56;98086.66;4957082;28;103275;-69
2023/06/01 15:45:34;;;;;;;;;6.00;5.00;;;;;25.75;32.68;98083.41;4957477;28;102114;-70
2023/06/01 15:48:01;;;;;;;;;5.00;5.00;;;;;25.80;32.99;98076.09;4960259;28;101959;-70
2023/06/01 15:50:28;;;;;;;;;6.00;6.00;;;;;25.61;31.64;98074.31;4955766;28;102355;-70
2023/06/01 15:52:55;;;;;;;;;4.00;4.00;;;;;26.00;31.75;98075.59;4954588;28;104216;-70
2023/06/01 15:55:22;;;;;;;;;4.67;3.67;;;;;26.13;31.17;98064.47;4959290;28;101998;-70
2023/06/01 15:57:49;;;;;;;;;2.00;2.00;;;;;26.31;32.06;98070.16;4960519;28;101955;-70
2023/06/01 16:00:17;;;;;;;;;3.33;3.00;;;;;26.23;31.95;98066.19;4959811;28;102389;-71
2023/06/01 16:02:44;;;;;;;;;6.00;6.00;;;;;25.83;30.21;98061.63;4959616;28;103991;-72
2023/06/01 16:05:11;;;;;;;;;4.67;4.67;;;;;25.86;31.72;98058.22;4957966;28;102117;-71
2023/06/01 16:07:38;;;;;;;;;5.00;4.67;;;;;26.01;32.60;98060.63;4956266;28;102017;-70
2023/06/01 16:10:08;;;;;;;;;5.00;5.00;;;;;25.74;32.17;98059.59;4960229;28;102620;-70
2023/06/01 16:12:35;;;;;;;;;4.00;3.00;;;;;26.04;30.49;98060.00;4952691;28;104010;-70
2023/06/01 16:15:03;;;;;;;;;6.00;5.00;;;;;25.77;31.34;98061.72;4949150;28;102266;-69
2023/06/01 16:17:30;;;;;;;;;4.00;4.00;;;;;25.76;31.33;98054.56;4951637;28;103604;-70
2023/06/01 16:19:58;;;;;;;;;5.00;5.00;;;;;25.77;31.40;98058.16;4951604;28;102374;-70
2023/06/01 16:22:26;;;;;;;;;4.00;4.00;;;;;25.83;31.42;98058.84;4956000;28;103984;-70
2023/06/01 16:24:53;;;;;;;;;5.00;5.00;;;;;25.85;31.12;98056.59;4955131;28;102268;-70
2023/06/01 16:27:20;;;;;;;;;6.67;5.67;;;;;25.36;32.12;98060.97;4956225;28;102267;-71
2023/06/01 16:29:47;;;;;;;;;5.33;5.00;;;;;25.16;32.76;98053.13;4956485;28;102600;-71
2023/06/01 16:32:14;;;;;;;;;8.33;8.00;;;;;25.09;32.84;98056.28;4957048;28;104207;-71
2023/06/01 16:34:41;;;;;;;;;5.00;4.67;;;;;25.29;32.79;98052.28;4953608;28;102951;-71
2023/06/01 16:37:08;;;;;;;;;4.33;4.33;;;;;25.41;33.67;98047.03;4957267;28;102217;-71
2023/06/01 16:39:35;;;;;;;;;8.00;7.33;;;;;25.03;31.73;98037.34;4957669;28;101969;-71
2023/06/01 16:42:03;;;;;;;;;6.00;6.00;;;;;25.14;32.03;98024.94;4958395;28;103994;-71
2023/06/01 16:44:30;;;;;;;;;5.00;5.00;;;;;25.21;32.12;98036.41;4951403;28;101981;-71
2023/06/01 16:46:57;;;;;;;;;7.00;6.00;;;;;25.02;32.77;98044.84;4950655;28;102124;-71
2023/06/01 16:49:24;;;;;;;;;5.33;4.33;;;;;25.02;33.61;98039.31;4953150;28;102032;-72
2023/06/01 16:51:51;;;;;;;;;4.67;4.33;;;;;25.18;33.48;98031.47;4951955;28;103998;-71
2023/06/01 16:54:18;;;;;;;;;7.33;7.00;;;;;25.06;32.89;98034.78;4952096;28;102120;-71
2023/06/01 16:56:45;;;;;;;;;5.67;5.67;;;;;25.05;34.80;98033.16;4954934;28;102486;-70
2023/06/01 16:59:12;;;;;;;;;4.00;4.00;;;;;25.18;34.39;98031.47;4954069;28;102228;-70
2023/06/01 17:01:39;;;;;;;;;6.67;6.67;;;;;25.05;33.90;98030.38;4951508;28;104020;-70
2023/06/01 17:04:06;;;;;;;;;6.00;5.33;;;;;24.67;34.14;98029.75;4954634;28;102882;-71
2023/06/01 17:06:33;;;;;;;;;7.00;6.00;;;;;24.54;34.72;98026.97;4951888;28;104355;-69
2023/06/01 17:09:01;;;;;;;;;5.00;5.00;;;;;24.30;34.76;97969.91;4953554;28;102175;-70
2023/06/01 17:11:28;;;;;;;;;5.33;5.33;;;;;24.74;35.70;98021.84;4946528;28;103995;-70
2023/06/01 17:13:55;;;;;;;;;3.00;3.00;;;;;24.85;35.71;98020.53;4946317;28;102686;-70
2023/06/01 17:16:22;;;;;;;;;6.00;5.00;;;;;24.66;35.01;98028.09;4952678;28;102004;-70
2023/06/01 17:18:49;;;;;;;;;7.00;7.00;;;;;24.42;35.97;98032.97;4950552;28;102360;-70
2023/06/01 17:21:16;;;;;;;;;8.00;7.67;;;;;24.21;36.64;98021.47;4951390;28;103941;-70
2023/06/01 17:23:44;;;;;;;;;6.00;6.00;;;;;24.19;37.36;98025.66;4953407;28;103943;-70
2023/06/01 17:26:11;;;;;;;;;3.00;3.00;;;;;24.21;37.35;98024.25;4953707;28;102417;-70
2023/06/01 17:28:38;;;;;;;;;4.00;4.00;;;;;24.32;37.71;98027.63;4956189;28;102394;-70
2023/06/01 17:31:07;;;;;;;;;4.00;3.67;;;;;24.19;37.16;98009.06;4957160;28;104081;-71
2023/06/01 17:33:35;;;;;;;;;5.00;5.00;;;;;24.12;37.51;98027.97;4948054;28;102462;-71
2023/06/01 17:36:02;;;;;;;;;5.67;5.00;;;;;24.16;37.89;98026.28;4952315;28;102296;-70
2023/06/01 17:38:29;;;;;;;;;8.33;7.00;;;;;23.82;37.41;98032.06;4947747;28;103171;-71
2023/06/01 17:40:56;;;;;;;;;7.00;6.33;;;;;23.74;37.24;98010.63;4949975;28;104072;-70
2023/06/01 17:43:23;;;;;;;;;8.67;8.00;;;;;23.62;38.05;98021.34;4951475;28;101892;-71
2023/06/01 17:45:50;;;;;;;;;4.00;4.00;;;;;23.67;37.91;98024.84;4954297;28;102024;-70
2023/06/01 17:48:17;;;;;;;;;4.33;4.00;;;;;23.70;38.80;98018.72;4949460;28;102015;-69
2023/06/01 17:50:44;;;;;;;;;4.67;4.33;;;;;23.63;38.25;98023.81;4950753;28;103979;-69
2023/06/01 17:53:12;;;;;;;;;4.67;4.67;;;;;23.54;38.44;98028.34;4947670;28;102184;-69
2023/06/01 17:55:59;;;;;;;;;5.00;5.00;;;;;23.38;39.23;98022.19;4952429;28;101903;-70
2023/06/01 17:58:28;;;;;;;;;6.00;5.33;;;;;23.27;39.67;98025.41;4953536;28;102110;-69
2023/06/01 18:00:55;;;;;;;;;6.00;5.33;;;;;23.24;39.60;98028.75;4956317;28;104194;-71
2023/06/01 18:03:22;;;;;;;;;4.33;4.00;;;;;23.21;40.33;98018.31;4952702;28;102111;-70
2023/06/01 18:05:49;;;;;;;;;8.00;6.00;;;;;23.05;40.02;98021.28;4956505;28;102418;-71
2023/06/01 18:08:16;;;;;;;;;3.67;3.00;;;;;23.04;40.99;98016.88;4952904;28;102047;-70
2023/06/01 18:10:43;;;;;;;;;4.00;3.67;;;;;23.00;40.38;98026.88;4952405;28;104160;-68
2023/06/01 18:13:10;;;;;;;;;4.33;3.33;;;;;22.91;40.58;98012.09;4954796;28;102906;-71
2023/06/01 18:15:37;;;;;;;;;4.00;4.00;;;;;22.94;40.93;98018.94;4954372;28;101980;-70
2023/06/01 18:18:04;;;;;;;;;5.00;4.00;;;;;22.89;40.74;98025.34;4952911;28;102383;-69
2023/06/01 18:20:31;;;;;;;;;3.00;3.00;;;;;22.82;41.05;98027.66;4954734;28;109177;-70
2023/06/01 18:22:58;;;;;;;;;2.67;2.67;;;;;22.78;41.26;98029.34;4953280;28;102108;-70
2023/06/01 18:25:26;;;;;;;;;4.00;3.00;;;;;22.74;41.38;98028.28;4949118;28;102332;-70
2023/06/01 18:27:53;;;;;;;;;2.67;2.67;;;;;22.64;41.36;98025.63;4949990;28;101916;-70
2023/06/01 18:30:19;;;;;;;;;0.00;0.00;;;;;22.59;41.54;98025.69;4953970;28;104009;-69
2023/06/01 18:32:46;;;;;;;;;2.00;2.00;;;;;22.49;45.45;98021.09;4947335;28;102161;-69
2023/06/01 18:35:13;;;;;;;;;1.00;1.00;;;;;22.34;44.80;98025.94;4946418;28;106206;-71
2023/06/01 18:37:40;;;;;;;;;1.00;1.00;;;;;22.14;48.25;98030.53;4952163;28;103177;-71
2023/06/01 18:40:08;;;;;;;;;1.67;1.67;;;;;21.96;48.34;98024.91;4953449;28;104164;-70
2023/06/01 18:42:36;;;;;;;;;2.00;1.00;;;;;21.78;47.00;98026.41;4954213;28;102149;-70
2023/06/01 18:45:04;;;;;;;;;2.00;2.00;;;;;21.59;47.62;98019.94;4956670;28;101948;-70
2023/06/01 18:47:31;;;;;;;;;1.00;1.00;;;;;21.41;49.17;98026.13;4956666;28;102480;-72
2023/06/01 18:49:58;;;;;;;;;2.00;1.67;;;;;21.22;50.26;98032.28;4951913;28;103690;-69
2023/06/01 18:52:25;;;;;;;;;1.33;1.00;;;;;21.02;49.81;98024.13;4953094;28;101937;-69
2023/06/01 18:54:52;;;;;;;;;1.00;1.00;;;;;20.86;50.40;98030.78;4952829;28;102113;-70
2023/06/01 18:57:20;;;;;;;;;1.00;1.00;;;;;20.63;52.65;98025.91;4953960;28;102480;-70
2023/06/01 18:59:47;;;;;;;;;2.00;2.00;;;;;20.46;52.23;98032.56;4944916;28;103705;-70
2023/06/01 19:02:15;;;;;;;;;0.33;0.33;;;;;20.31;52.90;98034.50;4954005;28;101923;-71
2023/06/01 19:04:42;;;;;;;;;1.00;1.00;;;;;20.15;52.85;98036.44;4952361;28;102108;-71
2023/06/01 19:07:33;;;;;;;;;1.33;1.33;;;;;19.98;53.95;98036.72;4953687;28;102447;-71
2023/06/01 19:10:00;;;;;;;;;0.67;0.67;;;;;19.75;53.31;98030.97;4958355;28;108723;-69
2023/06/01 19:12:27;;;;;;;;;1.00;1.00;;;;;19.65;53.49;98039.19;4955035;28;102236;-71
2023/06/01 19:14:55;;;;;;;;;1.67;1.67;;;;;19.52;53.68;98041.38;4956281;28;102322;-71
2023/06/01 19:17:22;;;;;;;;;2.00;1.67;;;;;19.38;55.36;98037.47;4953597;28;101932;-71
2023/06/01 19:19:52;;;;;;;;;1.67;1.67;;;;;19.27;53.57;98046.78;4949982;28;110432;-69
2023/06/01 19:22:31;;;;;;;;;0.67;0.67;;;;;19.12;54.61;98042.06;4950843;28;102506;-68
2023/06/01 19:25:01;;;;;;;;;3.00;2.00;;;;;18.99;55.13;98036.28;4952290;28;102242;-70
2023/06/01 19:27:30;;;;;;;;;2.00;1.00;;;;;18.79;57.59;98034.25;4941863;28;102788;-70
2023/06/01 19:29:59;;;;;;;;;1.00;1.00;;;;;18.66;57.50;98035.59;4952029;28;103699;-70
2023/06/01 19:32:26;;;;;;;;;3.33;2.33;;;;;18.54;57.07;98031.41;4947116;28;102894;-70
2023/06/01 19:34:55;;;;;;;;;1.00;1.00;;;;;18.40;60.16;98035.69;4953604;28;101977;-71
2023/06/01 19:37:22;;;;;;;;;3.00;3.00;;;;;18.31;57.54;98037.28;4953693;28;102218;-70
2023/06/01 19:39:49;;;;;;;;;3.00;2.00;;;;;18.20;60.04;98036.38;4948843;28;104162;-70
2023/06/01 19:42:16;;;;;;;;;3.00;2.00;;;;;18.05;60.55;98028.09;4942371;28;101906;-70
2023/06/01 19:44:44;;;;;;;;;3.00;2.33;;;;;17.99;60.37;98035.41;4948197;28;101987;-70
2023/06/01 19:47:32;;;;;;;;;4.00;3.33;;;;;17.83;61.88;98030.94;4948411;28;102381;-70
2023/06/01 19:50:00;;;;;;;;;3.00;3.00;;;;;17.71;61.87;98030.25;4948228;28;104317;-70
2023/06/01 19:52:42;;;;;;;;;3.67;3.00;;;;;17.60;65.54;98020.34;4948907;28;105109;-70
2023/06/01 19:55:12;;;;;;;;;6.00;6.00;;;;;17.40;64.92;98010.84;4950275;28;102035;-69
2023/06/01 19:57:40;;;;;;;;;5.00;4.00;;;;;17.42;66.39;98032.44;4954631;28;101941;-69
2023/06/01 20:00:08;;;;;;;;;5.00;4.00;;;;;17.32;65.01;98013.22;4956160;28;104053;-68
2023/06/01 20:02:54;;;;;;;;;0.00;0.00;;;;;17.35;65.72;98029.09;4957860;28;102206;-70
2023/06/01 20:05:23;;;;;;;;;2.33;2.33;;;;;17.27;63.76;98021.34;4942476;28;102036;-70
2023/06/01 20:07:58;;;;;;;;;5.00;4.00;;;;;17.14;63.43;98028.06;4953232;28;102150;-71
2023/06/01 20:10:31;;;;;;;;;1.00;1.00;;;;;17.13;66.49;98036.50;4949413;28;104048;-71
2023/06/01 20:13:01;;;;;;;;;6.75;6.00;;;;;16.89;67.06;98025.84;4949613;28;102244;-70
2023/06/01 20:15:31;;;;;;;;;7.75;7.75;;;;;16.81;67.42;98034.50;4954795;28;102269;-70
2023/06/01 20:18:04;;;;;;;;;5.50;5.00;;;;;16.77;67.01;98033.38;4953994;28;107415;-70